sensor_id;sensor_type;location;lat;lon;timestamp;P1;durP1;ratioP1;P2;durP2;ratioP2
2750;SDS011;1383;48.362;10.908;2023-04-06T00:00:08;13.13;;;10.18;;
2750;SDS011;1383;48.362;10.908;2023-04-06T00:02:36;17.63;;;9.85;;
2750;SDS011;1383;48.362;10.908;2023-04-06T00:05:03;10.75;;;9.15;;
2750;SDS011;1383;48.362;10.908;2023-04-06T00:07:30;11.88;;;9.73;;
2750;SDS011;1383;48.362;10.908;2023-04-06T00:09:59;14.15;;;10.48;;
2750;SDS011;1383;48.362;10.908;2023-04-06T00:12:26;11.10;;;10.00;;
2750;SDS011;1383;48.362;10.908;2023-04-06T00:14:53;16.63;;;10.18;;
2750;SDS011;1383;48.362;10.908;2023-04-06T00:17:19;12.00;;;10.05;;
2750;SDS011;1383;48.362;10.908;2023-04-06T00:19:46;10.23;;;9.20;;
2750;SDS011;1383;48.362;10.908;2023-04-06T00:22:13;12.90;;;10.00;;
2750;SDS011;1383;48.362;10.908;2023-04-06T00:24:40;10.88;;;9.45;;
2750;SDS011;1383;48.362;10.908;2023-04-06T00:27:07;11.60;;;10.40;;
2750;SDS011;1383;48.362;10.908;2023-04-06T00:29:34;11.90;;;10.30;;
2750;SDS011;1383;48.362;10.908;2023-04-06T00:32:01;11.55;;;10.23;;
2750;SDS011;1383;48.362;10.908;2023-04-06T00:34:28;10.35;;;9.13;;
2750;SDS011;1383;48.362;10.908;2023-04-06T00:36:55;12.93;;;9.43;;
2750;SDS011;1383;48.362;10.908;2023-04-06T00:39:21;11.95;;;9.90;;
2750;SDS011;1383;48.362;10.908;2023-04-06T00:41:50;10.40;;;9.25;;
2750;SDS011;1383;48.362;10.908;2023-04-06T00:44:18;15.75;;;10.57;;
2750;SDS011;1383;48.362;10.908;2023-04-06T00:46:46;11.80;;;9.90;;
2750;SDS011;1383;48.362;10.908;2023-04-06T00:49:13;11.02;;;9.30;;
2750;SDS011;1383;48.362;10.908;2023-04-06T00:51:39;14.88;;;9.77;;
2750;SDS011;1383;48.362;10.908;2023-04-06T00:54:06;12.18;;;9.40;;
2750;SDS011;1383;48.362;10.908;2023-04-06T00:56:33;13.32;;;10.60;;
2750;SDS011;1383;48.362;10.908;2023-04-06T00:59:00;11.65;;;10.52;;
2750;SDS011;1383;48.362;10.908;2023-04-06T01:01:28;11.10;;;9.77;;
2750;SDS011;1383;48.362;10.908;2023-04-06T01:03:55;14.38;;;9.40;;
2750;SDS011;1383;48.362;10.908;2023-04-06T01:06:22;11.43;;;10.27;;
2750;SDS011;1383;48.362;10.908;2023-04-06T01:08:48;11.60;;;10.13;;
2750;SDS011;1383;48.362;10.908;2023-04-06T01:11:15;10.82;;;9.40;;
2750;SDS011;1383;48.362;10.908;2023-04-06T01:13:43;15.57;;;10.90;;
2750;SDS011;1383;48.362;10.908;2023-04-06T01:16:10;11.80;;;10.35;;
2750;SDS011;1383;48.362;10.908;2023-04-06T01:18:37;11.23;;;10.18;;
2750;SDS011;1383;48.362;10.908;2023-04-06T01:21:04;17.35;;;9.45;;
2750;SDS011;1383;48.362;10.908;2023-04-06T01:23:31;13.43;;;10.45;;
2750;SDS011;1383;48.362;10.908;2023-04-06T01:25:58;11.82;;;9.32;;
2750;SDS011;1383;48.362;10.908;2023-04-06T01:28:25;12.10;;;9.90;;
2750;SDS011;1383;48.362;10.908;2023-04-06T01:30:52;13.70;;;9.75;;
2750;SDS011;1383;48.362;10.908;2023-04-06T01:33:18;14.40;;;9.85;;
2750;SDS011;1383;48.362;10.908;2023-04-06T01:35:45;14.00;;;10.35;;
2750;SDS011;1383;48.362;10.908;2023-04-06T01:38:12;11.63;;;10.43;;
2750;SDS011;1383;48.362;10.908;2023-04-06T01:40:39;16.38;;;9.93;;
2750;SDS011;1383;48.362;10.908;2023-04-06T01:43:06;13.55;;;10.77;;
2750;SDS011;1383;48.362;10.908;2023-04-06T01:45:33;12.25;;;10.40;;
2750;SDS011;1383;48.362;10.908;2023-04-06T01:48:00;13.45;;;9.95;;
2750;SDS011;1383;48.362;10.908;2023-04-06T01:50:27;11.68;;;10.52;;
2750;SDS011;1383;48.362;10.908;2023-04-06T01:52:54;15.45;;;11.13;;
2750;SDS011;1383;48.362;10.908;2023-04-06T01:55:21;10.63;;;9.55;;
2750;SDS011;1383;48.362;10.908;2023-04-06T01:57:47;14.85;;;10.65;;
2750;SDS011;1383;48.362;10.908;2023-04-06T02:00:14;12.13;;;10.15;;
2750;SDS011;1383;48.362;10.908;2023-04-06T02:02:42;12.57;;;11.25;;
2750;SDS011;1383;48.362;10.908;2023-04-06T02:05:09;12.20;;;10.93;;
2750;SDS011;1383;48.362;10.908;2023-04-06T02:07:36;10.55;;;9.52;;
2750;SDS011;1383;48.362;10.908;2023-04-06T02:10:03;13.55;;;10.80;;
2750;SDS011;1383;48.362;10.908;2023-04-06T02:12:30;13.23;;;10.40;;
2750;SDS011;1383;48.362;10.908;2023-04-06T02:14:57;22.50;;;10.50;;
2750;SDS011;1383;48.362;10.908;2023-04-06T02:17:24;13.05;;;11.00;;
2750;SDS011;1383;48.362;10.908;2023-04-06T02:19:51;13.50;;;12.13;;
2750;SDS011;1383;48.362;10.908;2023-04-06T02:22:17;12.23;;;11.05;;
2750;SDS011;1383;48.362;10.908;2023-04-06T02:24:45;13.10;;;10.10;;
2750;SDS011;1383;48.362;10.908;2023-04-06T02:27:13;14.65;;;10.85;;
2750;SDS011;1383;48.362;10.908;2023-04-06T02:29:41;12.60;;;10.05;;
2750;SDS011;1383;48.362;10.908;2023-04-06T02:32:07;17.15;;;11.35;;
2750;SDS011;1383;48.362;10.908;2023-04-06T02:34:34;12.35;;;10.23;;
2750;SDS011;1383;48.362;10.908;2023-04-06T02:37:01;11.85;;;10.63;;
2750;SDS011;1383;48.362;10.908;2023-04-06T02:39:28;16.20;;;12.05;;
2750;SDS011;1383;48.362;10.908;2023-04-06T02:41:54;15.75;;;10.35;;
2750;SDS011;1383;48.362;10.908;2023-04-06T02:44:23;13.90;;;11.40;;
2750;SDS011;1383;48.362;10.908;2023-04-06T02:46:49;15.27;;;12.60;;
2750;SDS011;1383;48.362;10.908;2023-04-06T02:49:17;14.85;;;12.40;;
2750;SDS011;1383;48.362;10.908;2023-04-06T02:51:43;15.63;;;11.32;;
2750;SDS011;1383;48.362;10.908;2023-04-06T02:54:10;13.77;;;10.88;;
2750;SDS011;1383;48.362;10.908;2023-04-06T02:56:37;12.38;;;10.82;;
2750;SDS011;1383;48.362;10.908;2023-04-06T02:59:04;17.10;;;10.70;;
2750;SDS011;1383;48.362;10.908;2023-04-06T03:01:30;13.70;;;12.30;;
2750;SDS011;1383;48.362;10.908;2023-04-06T03:03:57;17.27;;;11.50;;
2750;SDS011;1383;48.362;10.908;2023-04-06T03:06:24;15.50;;;12.27;;
2750;SDS011;1383;48.362;10.908;2023-04-06T03:08:51;16.50;;;11.73;;
2750;SDS011;1383;48.362;10.908;2023-04-06T03:11:18;13.68;;;11.82;;
2750;SDS011;1383;48.362;10.908;2023-04-06T03:13:45;15.52;;;11.60;;
2750;SDS011;1383;48.362;10.908;2023-04-06T03:16:11;15.02;;;11.75;;
2750;SDS011;1383;48.362;10.908;2023-04-06T03:18:38;17.65;;;11.85;;
2750;SDS011;1383;48.362;10.908;2023-04-06T03:21:05;14.05;;;10.85;;
2750;SDS011;1383;48.362;10.908;2023-04-06T03:23:32;14.32;;;12.13;;
2750;SDS011;1383;48.362;10.908;2023-04-06T03:25:59;15.02;;;11.98;;
2750;SDS011;1383;48.362;10.908;2023-04-06T03:28:26;12.05;;;10.65;;
2750;SDS011;1383;48.362;10.908;2023-04-06T03:30:53;18.83;;;12.57;;
2750;SDS011;1383;48.362;10.908;2023-04-06T03:33:19;14.00;;;12.35;;
2750;SDS011;1383;48.362;10.908;2023-04-06T03:35:46;16.35;;;12.25;;
2750;SDS011;1383;48.362;10.908;2023-04-06T03:38:13;15.77;;;12.30;;
2750;SDS011;1383;48.362;10.908;2023-04-06T03:40:40;11.88;;;10.27;;
2750;SDS011;1383;48.362;10.908;2023-04-06T03:43:08;13.63;;;11.32;;
2750;SDS011;1383;48.362;10.908;2023-04-06T03:45:35;17.85;;;12.45;;
2750;SDS011;1383;48.362;10.908;2023-04-06T03:48:02;15.68;;;11.75;;
2750;SDS011;1383;48.362;10.908;2023-04-06T03:50:29;12.75;;;11.45;;
2750;SDS011;1383;48.362;10.908;2023-04-06T03:52:56;15.95;;;11.60;;
2750;SDS011;1383;48.362;10.908;2023-04-06T03:55:23;12.48;;;10.80;;
2750;SDS011;1383;48.362;10.908;2023-04-06T03:57:50;14.77;;;11.13;;
2750;SDS011;1383;48.362;10.908;2023-04-06T04:00:17;15.10;;;11.25;;
2750;SDS011;1383;48.362;10.908;2023-04-06T04:02:44;13.40;;;11.50;;
2750;SDS011;1383;48.362;10.908;2023-04-06T04:05:11;14.90;;;11.40;;
2750;SDS011;1383;48.362;10.908;2023-04-06T04:07:38;13.30;;;10.70;;
2750;SDS011;1383;48.362;10.908;2023-04-06T04:10:05;12.98;;;11.63;;
2750;SDS011;1383;48.362;10.908;2023-04-06T04:12:32;12.63;;;10.70;;
2750;SDS011;1383;48.362;10.908;2023-04-06T04:14:58;17.35;;;11.70;;
2750;SDS011;1383;48.362;10.908;2023-04-06T04:17:25;13.60;;;11.57;;
2750;SDS011;1383;48.362;10.908;2023-04-06T04:19:52;13.70;;;11.55;;
2750;SDS011;1383;48.362;10.908;2023-04-06T04:22:19;18.08;;;12.30;;
2750;SDS011;1383;48.362;10.908;2023-04-06T04:24:46;15.10;;;12.32;;
2750;SDS011;1383;48.362;10.908;2023-04-06T04:27:12;15.52;;;12.27;;
2750;SDS011;1383;48.362;10.908;2023-04-06T04:29:39;22.80;;;11.27;;
2750;SDS011;1383;48.362;10.908;2023-04-06T04:32:06;13.25;;;11.93;;
2750;SDS011;1383;48.362;10.908;2023-04-06T04:34:33;14.23;;;11.65;;
2750;SDS011;1383;48.362;10.908;2023-04-06T04:36:59;16.55;;;12.27;;
2750;SDS011;1383;48.362;10.908;2023-04-06T04:39:26;15.80;;;11.80;;
2750;SDS011;1383;48.362;10.908;2023-04-06T04:41:53;14.00;;;12.40;;
2750;SDS011;1383;48.362;10.908;2023-04-06T04:44:20;27.35;;;11.55;;
2750;SDS011;1383;48.362;10.908;2023-04-06T04:46:47;14.43;;;12.93;;
2750;SDS011;1383;48.362;10.908;2023-04-06T04:49:14;20.52;;;13.40;;
2750;SDS011;1383;48.362;10.908;2023-04-06T04:51:41;13.38;;;11.07;;
2750;SDS011;1383;48.362;10.908;2023-04-06T04:54:07;14.10;;;10.90;;
2750;SDS011;1383;48.362;10.908;2023-04-06T04:56:34;16.13;;;11.15;;
2750;SDS011;1383;48.362;10.908;2023-04-06T04:59:01;18.88;;;13.18;;
2750;SDS011;1383;48.362;10.908;2023-04-06T05:01:28;15.63;;;12.85;;
2750;SDS011;1383;48.362;10.908;2023-04-06T05:03:55;17.45;;;13.10;;
2750;SDS011;1383;48.362;10.908;2023-04-06T05:06:22;16.10;;;13.65;;
2750;SDS011;1383;48.362;10.908;2023-04-06T05:08:48;13.20;;;11.80;;
2750;SDS011;1383;48.362;10.908;2023-04-06T05:11:15;15.32;;;11.40;;
2750;SDS011;1383;48.362;10.908;2023-04-06T05:13:42;17.80;;;13.35;;
2750;SDS011;1383;48.362;10.908;2023-04-06T05:16:09;16.00;;;14.15;;
2750;SDS011;1383;48.362;10.908;2023-04-06T05:18:37;17.45;;;13.35;;
2750;SDS011;1383;48.362;10.908;2023-04-06T05:21:03;15.02;;;11.75;;
2750;SDS011;1383;48.362;10.908;2023-04-06T05:23:30;23.92;;;12.60;;
2750;SDS011;1383;48.362;10.908;2023-04-06T05:25:57;15.73;;;13.75;;
2750;SDS011;1383;48.362;10.908;2023-04-06T05:28:24;13.75;;;11.93;;
2750;SDS011;1383;48.362;10.908;2023-04-06T05:30:51;16.90;;;10.95;;
2750;SDS011;1383;48.362;10.908;2023-04-06T05:33:19;16.90;;;12.25;;
2750;SDS011;1383;48.362;10.908;2023-04-06T05:35:45;14.07;;;10.65;;
2750;SDS011;1383;48.362;10.908;2023-04-06T05:38:12;11.30;;;10.20;;
2750;SDS011;1383;48.362;10.908;2023-04-06T05:40:39;12.82;;;10.70;;
2750;SDS011;1383;48.362;10.908;2023-04-06T05:43:07;15.10;;;11.55;;
2750;SDS011;1383;48.362;10.908;2023-04-06T05:45:34;13.55;;;10.45;;
2750;SDS011;1383;48.362;10.908;2023-04-06T05:48:01;13.23;;;11.05;;
2750;SDS011;1383;48.362;10.908;2023-04-06T05:50:28;19.65;;;11.98;;
2750;SDS011;1383;48.362;10.908;2023-04-06T05:52:55;17.52;;;13.13;;
2750;SDS011;1383;48.362;10.908;2023-04-06T05:55:22;13.93;;;11.82;;
2750;SDS011;1383;48.362;10.908;2023-04-06T05:57:49;15.90;;;12.70;;
2750;SDS011;1383;48.362;10.908;2023-04-06T06:00:16;15.68;;;11.38;;
2750;SDS011;1383;48.362;10.908;2023-04-06T06:02:43;13.23;;;11.35;;
2750;SDS011;1383;48.362;10.908;2023-04-06T06:05:09;19.45;;;11.02;;
2750;SDS011;1383;48.362;10.908;2023-04-06T06:07:37;15.18;;;12.40;;
2750;SDS011;1383;48.362;10.908;2023-04-06T06:10:03;13.98;;;11.40;;
2750;SDS011;1383;48.362;10.908;2023-04-06T06:12:30;13.02;;;11.55;;
2750;SDS011;1383;48.362;10.908;2023-04-06T06:14:57;15.57;;;13.30;;
2750;SDS011;1383;48.362;10.908;2023-04-06T06:17:24;11.88;;;10.63;;
2750;SDS011;1383;48.362;10.908;2023-04-06T06:19:51;15.15;;;12.25;;
2750;SDS011;1383;48.362;10.908;2023-04-06T06:22:18;22.27;;;11.63;;
2750;SDS011;1383;48.362;10.908;2023-04-06T06:24:45;13.88;;;11.60;;
2750;SDS011;1383;48.362;10.908;2023-04-06T06:27:12;13.45;;;9.77;;
2750;SDS011;1383;48.362;10.908;2023-04-06T06:29:39;17.10;;;13.07;;
2750;SDS011;1383;48.362;10.908;2023-04-06T06:32:06;13.90;;;10.70;;
2750;SDS011;1383;48.362;10.908;2023-04-06T06:34:35;15.48;;;11.05;;
2750;SDS011;1383;48.362;10.908;2023-04-06T06:37:02;14.48;;;11.60;;
2750;SDS011;1383;48.362;10.908;2023-04-06T06:39:29;17.08;;;11.40;;
2750;SDS011;1383;48.362;10.908;2023-04-06T06:41:56;14.45;;;11.30;;
2750;SDS011;1383;48.362;10.908;2023-04-06T06:44:22;19.08;;;11.57;;
2750;SDS011;1383;48.362;10.908;2023-04-06T06:46:49;11.63;;;10.43;;
2750;SDS011;1383;48.362;10.908;2023-04-06T06:49:16;16.73;;;11.32;;
2750;SDS011;1383;48.362;10.908;2023-04-06T06:51:43;15.38;;;11.15;;
2750;SDS011;1383;48.362;10.908;2023-04-06T06:54:10;15.05;;;11.07;;
2750;SDS011;1383;48.362;10.908;2023-04-06T06:56:37;11.25;;;9.57;;
2750;SDS011;1383;48.362;10.908;2023-04-06T06:59:05;12.25;;;10.32;;
2750;SDS011;1383;48.362;10.908;2023-04-06T07:01:36;13.30;;;10.50;;
2750;SDS011;1383;48.362;10.908;2023-04-06T07:04:03;14.07;;;10.43;;
2750;SDS011;1383;48.362;10.908;2023-04-06T07:06:30;14.85;;;10.65;;
2750;SDS011;1383;48.362;10.908;2023-04-06T07:08:57;12.60;;;10.70;;
2750;SDS011;1383;48.362;10.908;2023-04-06T07:11:24;12.20;;;10.90;;
2750;SDS011;1383;48.362;10.908;2023-04-06T07:13:52;10.20;;;9.30;;
2750;SDS011;1383;48.362;10.908;2023-04-06T07:16:19;12.90;;;9.77;;
2750;SDS011;1383;48.362;10.908;2023-04-06T07:18:46;11.47;;;10.10;;
2750;SDS011;1383;48.362;10.908;2023-04-06T07:21:13;11.23;;;9.50;;
2750;SDS011;1383;48.362;10.908;2023-04-06T07:23:40;12.40;;;10.80;;
2750;SDS011;1383;48.362;10.908;2023-04-06T07:26:07;11.10;;;10.00;;
2750;SDS011;1383;48.362;10.908;2023-04-06T07:28:34;10.50;;;9.43;;
2750;SDS011;1383;48.362;10.908;2023-04-06T07:31:01;10.73;;;9.13;;
2750;SDS011;1383;48.362;10.908;2023-04-06T07:33:28;10.30;;;8.50;;
2750;SDS011;1383;48.362;10.908;2023-04-06T07:35:56;11.00;;;9.38;;
2750;SDS011;1383;48.362;10.908;2023-04-06T07:38:24;15.90;;;10.23;;
2750;SDS011;1383;48.362;10.908;2023-04-06T07:40:51;14.87;;;9.80;;
2750;SDS011;1383;48.362;10.908;2023-04-06T07:43:18;12.20;;;9.70;;
2750;SDS011;1383;48.362;10.908;2023-04-06T07:45:45;18.07;;;10.53;;
2750;SDS011;1383;48.362;10.908;2023-04-06T07:48:12;11.67;;;9.87;;
2750;SDS011;1383;48.362;10.908;2023-04-06T07:50:39;10.30;;;9.30;;
2750;SDS011;1383;48.362;10.908;2023-04-06T07:53:06;11.37;;;10.03;;
2750;SDS011;1383;48.362;10.908;2023-04-06T07:55:33;11.20;;;9.67;;
2750;SDS011;1383;48.362;10.908;2023-04-06T07:57:59;12.73;;;10.37;;
2750;SDS011;1383;48.362;10.908;2023-04-06T08:00:27;13.00;;;10.63;;
2750;SDS011;1383;48.362;10.908;2023-04-06T08:02:53;10.40;;;9.40;;
2750;SDS011;1383;48.362;10.908;2023-04-06T08:05:21;13.33;;;10.40;;
2750;SDS011;1383;48.362;10.908;2023-04-06T08:07:48;11.53;;;10.33;;
2750;SDS011;1383;48.362;10.908;2023-04-06T08:10:14;12.80;;;11.50;;
2750;SDS011;1383;48.362;10.908;2023-04-06T08:12:41;13.07;;;11.20;;
2750;SDS011;1383;48.362;10.908;2023-04-06T08:15:08;11.47;;;10.37;;
2750;SDS011;1383;48.362;10.908;2023-04-06T08:17:35;11.00;;;9.60;;
2750;SDS011;1383;48.362;10.908;2023-04-06T08:20:02;12.20;;;9.90;;
2750;SDS011;1383;48.362;10.908;2023-04-06T08:22:30;11.53;;;10.43;;
2750;SDS011;1383;48.362;10.908;2023-04-06T08:24:57;9.97;;;8.93;;
2750;SDS011;1383;48.362;10.908;2023-04-06T08:27:23;10.53;;;9.43;;
2750;SDS011;1383;48.362;10.908;2023-04-06T08:29:50;10.47;;;9.47;;
2750;SDS011;1383;48.362;10.908;2023-04-06T08:32:17;11.40;;;10.03;;
2750;SDS011;1383;48.362;10.908;2023-04-06T08:34:44;13.90;;;10.90;;
2750;SDS011;1383;48.362;10.908;2023-04-06T08:37:11;12.50;;;11.20;;
2750;SDS011;1383;48.362;10.908;2023-04-06T08:39:38;11.27;;;8.73;;
2750;SDS011;1383;48.362;10.908;2023-04-06T08:42:10;12.27;;;10.30;;
2750;SDS011;1383;48.362;10.908;2023-04-06T08:44:41;17.27;;;9.50;;
2750;SDS011;1383;48.362;10.908;2023-04-06T08:47:08;12.80;;;9.80;;
2750;SDS011;1383;48.362;10.908;2023-04-06T08:49:37;15.93;;;10.87;;
2750;SDS011;1383;48.362;10.908;2023-04-06T08:52:07;13.63;;;10.27;;
2750;SDS011;1383;48.362;10.908;2023-04-06T08:54:37;11.63;;;9.60;;
2750;SDS011;1383;48.362;10.908;2023-04-06T08:57:04;12.13;;;9.70;;
2750;SDS011;1383;48.362;10.908;2023-04-06T08:59:33;13.10;;;9.57;;
2750;SDS011;1383;48.362;10.908;2023-04-06T09:02:01;12.30;;;9.23;;
2750;SDS011;1383;48.362;10.908;2023-04-06T09:04:32;12.07;;;10.50;;
2750;SDS011;1383;48.362;10.908;2023-04-06T09:07:00;12.97;;;10.90;;
2750;SDS011;1383;48.362;10.908;2023-04-06T09:09:27;12.93;;;10.80;;
2750;SDS011;1383;48.362;10.908;2023-04-06T09:11:54;12.77;;;11.47;;
2750;SDS011;1383;48.362;10.908;2023-04-06T09:14:37;10.17;;;9.17;;
2750;SDS011;1383;48.362;10.908;2023-04-06T09:17:05;12.77;;;10.70;;
2750;SDS011;1383;48.362;10.908;2023-04-06T09:19:32;11.63;;;9.97;;
2750;SDS011;1383;48.362;10.908;2023-04-06T09:22:03;14.27;;;10.50;;
2750;SDS011;1383;48.362;10.908;2023-04-06T09:27:10;12.10;;;9.27;;
2750;SDS011;1383;48.362;10.908;2023-04-06T09:29:37;11.33;;;9.70;;
2750;SDS011;1383;48.362;10.908;2023-04-06T09:32:05;14.20;;;11.67;;
2750;SDS011;1383;48.362;10.908;2023-04-06T09:34:33;13.13;;;9.97;;
2750;SDS011;1383;48.362;10.908;2023-04-06T09:37:00;11.93;;;9.00;;
2750;SDS011;1383;48.362;10.908;2023-04-06T09:39:37;11.53;;;9.57;;
2750;SDS011;1383;48.362;10.908;2023-04-06T09:42:04;12.17;;;9.87;;
2750;SDS011;1383;48.362;10.908;2023-04-06T09:44:31;12.90;;;9.70;;
2750;SDS011;1383;48.362;10.908;2023-04-06T09:46:58;13.07;;;9.93;;
2750;SDS011;1383;48.362;10.908;2023-04-06T09:49:30;11.43;;;9.53;;
2750;SDS011;1383;48.362;10.908;2023-04-06T09:52:00;10.50;;;9.37;;
2750;SDS011;1383;48.362;10.908;2023-04-06T09:54:30;11.17;;;9.93;;
2750;SDS011;1383;48.362;10.908;2023-04-06T09:57:01;9.63;;;8.67;;
2750;SDS011;1383;48.362;10.908;2023-04-06T09:59:50;11.60;;;8.33;;
2750;SDS011;1383;48.362;10.908;2023-04-06T10:02:26;11.50;;;9.57;;
2750;SDS011;1383;48.362;10.908;2023-04-06T10:05:20;10.17;;;8.07;;
2750;SDS011;1383;48.362;10.908;2023-04-06T10:07:51;11.93;;;9.63;;
2750;SDS011;1383;48.362;10.908;2023-04-06T10:10:26;12.63;;;11.33;;
2750;SDS011;1383;48.362;10.908;2023-04-06T10:12:54;11.57;;;9.60;;
2750;SDS011;1383;48.362;10.908;2023-04-06T10:15:22;9.93;;;8.60;;
2750;SDS011;1383;48.362;10.908;2023-04-06T10:17:50;9.97;;;8.67;;
2750;SDS011;1383;48.362;10.908;2023-04-06T10:20:22;11.30;;;9.10;;
2750;SDS011;1383;48.362;10.908;2023-04-06T10:23:01;10.50;;;9.40;;
2750;SDS011;1383;48.362;10.908;2023-04-06T10:25:53;10.70;;;9.00;;
2750;SDS011;1383;48.362;10.908;2023-04-06T10:28:21;11.13;;;9.93;;
2750;SDS011;1383;48.362;10.908;2023-04-06T10:30:48;10.73;;;9.63;;
2750;SDS011;1383;48.362;10.908;2023-04-06T10:33:16;10.80;;;9.30;;
2750;SDS011;1383;48.362;10.908;2023-04-06T10:35:44;10.40;;;9.40;;
2750;SDS011;1383;48.362;10.908;2023-04-06T10:38:11;12.57;;;9.63;;
2750;SDS011;1383;48.362;10.908;2023-04-06T10:40:41;11.57;;;9.80;;
2750;SDS011;1383;48.362;10.908;2023-04-06T10:43:14;11.87;;;9.00;;
2750;SDS011;1383;48.362;10.908;2023-04-06T10:45:45;11.20;;;9.40;;
2750;SDS011;1383;48.362;10.908;2023-04-06T10:48:22;10.43;;;8.63;;
2750;SDS011;1383;48.362;10.908;2023-04-06T10:50:50;13.20;;;9.57;;
2750;SDS011;1383;48.362;10.908;2023-04-06T10:53:22;8.47;;;7.60;;
2750;SDS011;1383;48.362;10.908;2023-04-06T10:55:50;10.90;;;8.20;;
2750;SDS011;1383;48.362;10.908;2023-04-06T10:58:19;9.30;;;8.00;;
2750;SDS011;1383;48.362;10.908;2023-04-06T11:00:46;10.47;;;8.10;;
2750;SDS011;1383;48.362;10.908;2023-04-06T11:03:16;9.07;;;8.17;;
2750;SDS011;1383;48.362;10.908;2023-04-06T11:05:44;9.37;;;8.47;;
2750;SDS011;1383;48.362;10.908;2023-04-06T11:10:49;8.90;;;7.83;;
2750;SDS011;1383;48.362;10.908;2023-04-06T11:13:16;9.37;;;7.50;;
2750;SDS011;1383;48.362;10.908;2023-04-06T11:15:43;9.20;;;7.87;;
2750;SDS011;1383;48.362;10.908;2023-04-06T11:18:10;10.77;;;8.00;;
2750;SDS011;1383;48.362;10.908;2023-04-06T11:20:37;11.60;;;9.13;;
2750;SDS011;1383;48.362;10.908;2023-04-06T11:23:04;10.77;;;8.10;;
2750;SDS011;1383;48.362;10.908;2023-04-06T11:25:32;11.03;;;9.80;;
2750;SDS011;1383;48.362;10.908;2023-04-06T11:27:59;10.77;;;7.93;;
2750;SDS011;1383;48.362;10.908;2023-04-06T11:30:26;8.17;;;7.37;;
2750;SDS011;1383;48.362;10.908;2023-04-06T11:32:59;8.73;;;7.53;;
2750;SDS011;1383;48.362;10.908;2023-04-06T11:35:27;9.23;;;8.00;;
2750;SDS011;1383;48.362;10.908;2023-04-06T11:37:57;8.80;;;7.90;;
2750;SDS011;1383;48.362;10.908;2023-04-06T11:40:25;10.17;;;9.10;;
2750;SDS011;1383;48.362;10.908;2023-04-06T11:42:54;10.00;;;8.60;;
2750;SDS011;1383;48.362;10.908;2023-04-06T11:45:22;13.63;;;7.60;;
2750;SDS011;1383;48.362;10.908;2023-04-06T11:47:56;8.10;;;7.30;;
2750;SDS011;1383;48.362;10.908;2023-04-06T11:50:31;7.77;;;5.63;;
2750;SDS011;1383;48.362;10.908;2023-04-06T11:53:01;6.83;;;5.60;;
2750;SDS011;1383;48.362;10.908;2023-04-06T11:55:29;6.20;;;4.90;;
2750;SDS011;1383;48.362;10.908;2023-04-06T11:58:03;6.50;;;5.60;;
2750;SDS011;1383;48.362;10.908;2023-04-06T12:00:30;7.77;;;5.97;;
2750;SDS011;1383;48.362;10.908;2023-04-06T12:03:00;6.37;;;5.77;;
2750;SDS011;1383;48.362;10.908;2023-04-06T12:05:27;6.87;;;6.17;;
2750;SDS011;1383;48.362;10.908;2023-04-06T12:07:54;6.57;;;5.77;;
2750;SDS011;1383;48.362;10.908;2023-04-06T12:10:24;7.20;;;6.40;;
2750;SDS011;1383;48.362;10.908;2023-04-06T12:12:50;7.17;;;6.47;;
2750;SDS011;1383;48.362;10.908;2023-04-06T12:15:17;7.60;;;5.80;;
2750;SDS011;1383;48.362;10.908;2023-04-06T12:17:44;6.47;;;5.70;;
2750;SDS011;1383;48.362;10.908;2023-04-06T12:20:11;7.50;;;6.67;;
2750;SDS011;1383;48.362;10.908;2023-04-06T12:22:51;6.67;;;5.90;;
2750;SDS011;1383;48.362;10.908;2023-04-06T12:25:19;6.90;;;5.83;;
2750;SDS011;1383;48.362;10.908;2023-04-06T12:27:46;6.57;;;5.90;;
2750;SDS011;1383;48.362;10.908;2023-04-06T12:30:13;5.73;;;5.13;;
2750;SDS011;1383;48.362;10.908;2023-04-06T12:32:40;6.60;;;5.97;;
2750;SDS011;1383;48.362;10.908;2023-04-06T12:35:08;6.20;;;5.60;;
2750;SDS011;1383;48.362;10.908;2023-04-06T12:37:35;6.00;;;5.50;;
2750;SDS011;1383;48.362;10.908;2023-04-06T12:40:03;7.13;;;6.43;;
2750;SDS011;1383;48.362;10.908;2023-04-06T12:42:30;9.73;;;6.40;;
2750;SDS011;1383;48.362;10.908;2023-04-06T12:44:57;8.73;;;6.50;;
2750;SDS011;1383;48.362;10.908;2023-04-06T12:47:25;8.53;;;6.27;;
2750;SDS011;1383;48.362;10.908;2023-04-06T12:49:52;6.73;;;6.13;;
2750;SDS011;1383;48.362;10.908;2023-04-06T12:52:21;7.90;;;6.87;;
2750;SDS011;1383;48.362;10.908;2023-04-06T12:54:48;6.17;;;5.57;;
2750;SDS011;1383;48.362;10.908;2023-04-06T12:57:16;5.60;;;5.10;;
2750;SDS011;1383;48.362;10.908;2023-04-06T12:59:43;6.03;;;5.30;;
2750;SDS011;1383;48.362;10.908;2023-04-06T13:02:11;5.80;;;4.83;;
2750;SDS011;1383;48.362;10.908;2023-04-06T13:04:38;8.07;;;7.27;;
2750;SDS011;1383;48.362;10.908;2023-04-06T13:07:05;9.17;;;5.67;;
2750;SDS011;1383;48.362;10.908;2023-04-06T13:09:32;7.70;;;6.90;;
2750;SDS011;1383;48.362;10.908;2023-04-06T13:11:58;9.90;;;8.10;;
2750;SDS011;1383;48.362;10.908;2023-04-06T13:14:25;6.17;;;5.57;;
2750;SDS011;1383;48.362;10.908;2023-04-06T13:16:52;5.87;;;5.23;;
2750;SDS011;1383;48.362;10.908;2023-04-06T13:19:19;6.33;;;5.73;;
2750;SDS011;1383;48.362;10.908;2023-04-06T13:21:46;7.37;;;6.60;;
2750;SDS011;1383;48.362;10.908;2023-04-06T13:24:13;6.77;;;6.17;;
2750;SDS011;1383;48.362;10.908;2023-04-06T13:26:42;5.53;;;4.87;;
2750;SDS011;1383;48.362;10.908;2023-04-06T13:29:09;7.07;;;5.60;;
2750;SDS011;1383;48.362;10.908;2023-04-06T13:31:36;7.00;;;6.27;;
2750;SDS011;1383;48.362;10.908;2023-04-06T13:34:04;6.40;;;5.80;;
2750;SDS011;1383;48.362;10.908;2023-04-06T13:36:31;5.93;;;4.90;;
2750;SDS011;1383;48.362;10.908;2023-04-06T13:38:58;6.00;;;5.40;;
2750;SDS011;1383;48.362;10.908;2023-04-06T13:41:25;7.50;;;5.47;;
2750;SDS011;1383;48.362;10.908;2023-04-06T13:43:52;5.80;;;4.83;;
2750;SDS011;1383;48.362;10.908;2023-04-06T13:46:19;6.83;;;6.13;;
2750;SDS011;1383;48.362;10.908;2023-04-06T13:48:46;6.07;;;5.23;;
2750;SDS011;1383;48.362;10.908;2023-04-06T13:51:14;5.87;;;5.37;;
2750;SDS011;1383;48.362;10.908;2023-04-06T13:53:41;5.37;;;4.87;;
2750;SDS011;1383;48.362;10.908;2023-04-06T13:56:08;5.63;;;5.13;;
2750;SDS011;1383;48.362;10.908;2023-04-06T13:58:35;6.40;;;5.80;;
2750;SDS011;1383;48.362;10.908;2023-04-06T14:01:03;7.23;;;5.40;;
2750;SDS011;1383;48.362;10.908;2023-04-06T14:03:36;6.87;;;5.23;;
2750;SDS011;1383;48.362;10.908;2023-04-06T14:06:13;11.23;;;6.03;;
2750;SDS011;1383;48.362;10.908;2023-04-06T14:08:56;8.23;;;7.43;;
2750;SDS011;1383;48.362;10.908;2023-04-06T14:11:23;6.63;;;5.97;;
2750;SDS011;1383;48.362;10.908;2023-04-06T14:13:50;6.97;;;5.00;;
2750;SDS011;1383;48.362;10.908;2023-04-06T14:16:17;7.13;;;6.40;;
2750;SDS011;1383;48.362;10.908;2023-04-06T14:18:45;5.90;;;5.30;;
2750;SDS011;1383;48.362;10.908;2023-04-06T14:21:13;5.03;;;4.60;;
2750;SDS011;1383;48.362;10.908;2023-04-06T14:23:40;5.70;;;5.20;;
2750;SDS011;1383;48.362;10.908;2023-04-06T14:26:08;5.70;;;5.20;;
2750;SDS011;1383;48.362;10.908;2023-04-06T14:28:35;5.10;;;4.60;;
2750;SDS011;1383;48.362;10.908;2023-04-06T14:31:09;5.93;;;5.43;;
2750;SDS011;1383;48.362;10.908;2023-04-06T14:33:38;6.53;;;5.93;;
2750;SDS011;1383;48.362;10.908;2023-04-06T14:36:06;6.43;;;5.50;;
2750;SDS011;1383;48.362;10.908;2023-04-06T14:38:33;6.27;;;5.67;;
2750;SDS011;1383;48.362;10.908;2023-04-06T14:41:01;7.37;;;6.70;;
2750;SDS011;1383;48.362;10.908;2023-04-06T14:43:28;6.47;;;5.80;;
2750;SDS011;1383;48.362;10.908;2023-04-06T14:45:59;5.83;;;5.33;;
2750;SDS011;1383;48.362;10.908;2023-04-06T14:48:26;6.20;;;5.63;;
2750;SDS011;1383;48.362;10.908;2023-04-06T14:50:54;7.17;;;6.03;;
2750;SDS011;1383;48.362;10.908;2023-04-06T14:53:25;7.27;;;6.17;;